Terminal Aerodrome Forecast
Issued by NWS

Home | Current Version | Previous Version | Text Only | Print | Product List | Glossary On
Versions: 1 2 3 4 5 6 7 8 9 10 11 12 13 14 15 16
000
FTUS43 KGRB 241137
TAFCWA
TAF
KCWA 241137Z 2412/2512 VRB03KT P6SM SKC
     FM241600 18007KT P6SM FEW050
     FM250300 VRB03KT P6SM FEW200 WS015/21030KT=

USA.gov is the U.S. government's official web portal to all federal, state and local government web resources and services.